Tiempo atmosférico en la estación meteorológica de A Coruña Aeropuerto, A Coruña (98 m.)



Fecha
DESCASC
Temp. máxima en grados centígrados (hora)
DESCASC
Temp. mínima en grados centígrados (hora)
DESCASC
Temp. media en grados centígrados
DESCASC
Racha de viento máxima en m/sg (hora)
DESCASC
Velocidad máxima media en intervalos de 10 minutos(hora)
DESCASC
Precipitaciones diarias en mm
DESCASC
Precipitaciones de 00:00 a 06:00 en mm
DESCASC
Precipitaciones de 06:00 a 12:00 en mm
DESCASC
Precipitaciones de 12:00 a 18:00 en mm
DESCASC
Precipitaciones de 18:00 a 24:00 en mm
DESCASC
15-08-2019 22.6 (17:00) 14.6 (07:40) 18.6 7.78 (14:20) 5 (17:50) 0 0 0 0 0
14-08-2019 22.3 (13:40) 13.2 (00:00) 17.7 9.17 (12:10) 4.72 (18:30) 0.1 0 0 0 0.1
13-08-2019 21.1 (15:50) 9.1 (00:00) 15.1 8.33 (07:20) 5 (16:00) 0 0 0 0 0
12-08-2019 20.8 (13:50) 11.8 (00:00) 16.3 8.33 (17:40) 4.72 (19:10) 0.3 0 0.3 0 0
11-08-2019 20.6 (17:00) 13.2 (00:00) 16.9 11.39 (16:20) 6.67 (16:20) 2.4 0 0 2.2 0.2
10-08-2019 23.5 (13:30) 15.4 (00:00) 19.4 11.39 (18:30) 7.22 (19:10) 0 0 0 0 0
09-08-2019 24.5 (13:20) 17.5 (00:00) 21 17.5 (12:40) 11.67 (13:00) 0.1 0 0 0.1 0
08-08-2019 26.4 (15:50) 19.6 (00:00) 23 21.11 (16:10) 12.78 (16:10) 4 0 0 0.9 3.1
07-08-2019 24.4 (15:10) 17.4 (00:00) 20.9 12.5 (22:50) 8.06 (21:10) 3.8 0 0.6 3.2 0
06-08-2019 24.3 (14:20) 18.3 (00:00) 21.3 8.33 (12:10) 5 (13:00) 0 0 0 0 0
05-08-2019 26.1 (16:10) 12.9 (00:00) 19.5 8.33 (16:20) 5 (18:30) 0 0 0 0 0
04-08-2019 23.4 (17:20) 16.8 (00:00) 20.1 8.89 (15:30) 5.56 (15:40) 0 0 0 0 0
03-08-2019 23.9 (15:40) 16 (00:00) 19.9 9.17 (16:00) 5.56 (15:50) 0 0 0 0 0
02-08-2019 24.5 (18:20) 13.7 (00:00) 19.1 7.78 (16:20) 4.72 (15:30) 0 0 0 0 0
01-08-2019 24.9 (17:40) 15.9 (00:00) 20.4 10.83 (14:50) 6.11 (14:50) 0 0 0 0 0
31-07-2019 21.8 (15:00) 9.9 (00:00) 15.8 10.28 (17:00) 6.39 (17:10) 0 0 0 0 0
30-07-2019 21.3 (16:40) 14.5 (00:00) 17.9 9.17 (14:10) 5.83 (14:20) 0.1 0.1 0 0 0
29-07-2019 21.2 (13:50) 15.6 (00:00) 18.4 15.28 (15:50) 8.89 (17:30) 0.7 0.2 0 0.5 0
28-07-2019 24.4 (17:20) 11.2 (00:00) 17.8 11.39 (22:30) 7.22 (22:40) 0 0 0 0 0
27-07-2019 20.4 (16:40) 13.9 (00:00) 17.1 10.28 (16:50) 6.67 (18:30) 8.9 3.1 5.8 0 0
26-07-2019 23.8 (16:00) 16.6 (00:00) 20.2 10.28 (18:50) 6.39 (18:50) 0.6 0.2 0 0 0.4
25-07-2019 26 (18:50) 18.2 (00:00) 22.1 12.78 (02:10) 8.33 (02:00) 0.4 0 0.2 0.2 0
24-07-2019 26.7 (17:30) 13.9 (00:00) 20.3 9.72 (21:40) 6.11 (23:30) 0 0 0 0 0
23-07-2019 25 (15:10) 17 (00:00) 21 10.83 (16:10) 6.39 (16:10) 0 0 0 0 0
22-07-2019 28.7 (18:10) 14.6 (00:00) 21.7 7.78 (18:10) 5 (19:00) 0 0 0 0 0
21-07-2019 23.1 (17:30) 15.9 (00:00) 19.5 12.5 (14:50) 7.5 (14:30) 0 0 0 0 0
20-07-2019 23.8 (16:30) 17 (00:00) 20.4 7.78 (13:50) 5 (14:20) 0.1 0 0.1 0 0
19-07-2019 23.4 (20:00) 16.8 (00:00) 20.1 8.89 (17:20) 5.28 (17:20) 0 0 0 0 0

Gráficas

Temp. máximas Temp. mínimas Temp. medias Precipitaciones Rachas de viento máximas Velocidades máximas media en intervalos de 10 minutos

Datos horarios

Fecha y hora oficial Temperatura (ºC) Velocidad del viento (km/h) Dirección del viento Racha (km/h) Dirección de racha Precipitación (mm) Presión (hPa) Tendencia (hPa) Humedad (%)
2019-08-17 23:00:00 21.2 12 Sur 32 Sur 0 1001.5 0.1 82
2019-08-17 22:00:00 21.8 19 Sur 32 Sur 0 1000.7 -1 79
2019-08-17 21:00:00 22.6 24 Sudoeste 41 Sur 0 1000.9 -1 76
2019-08-17 20:00:00 23.4 20 Sudoeste 37 Sur 0 1001.4 -0.8 75
2019-08-17 19:00:00 24.2 21 Sudoeste 42 Sur 0 1001.7 -0.6 73
2019-08-17 18:00:00 24.9 28 Sudoeste 42 Sudoeste 0 1001.9 -0.8 71
2019-08-17 17:00:00 25 30 Sudoeste 46 Sudoeste 0 1002.2 -0.9 69
2019-08-17 16:00:00 25.3 27 Sudoeste 46 Sudoeste 0 1002.3 -1.1 70
2019-08-17 15:00:00 24.8 18 Sur 35 Sudoeste 0 1002.7 -0.8 72
2019-08-17 14:00:00 23.8 23 Sur 35 Sudoeste 0 1003.1 -0.7 74
2019-08-17 13:00:00 24.6 20 Sudoeste 41 Sur 0 1003.4 -0.5 71
2019-08-17 12:00:00 22.8 18 Sur 32 Sur 0 1003.5 -0.2 78
2019-08-17 11:00:00 22 19 Sur 32 Sudoeste 0 1003.8 0.1 80
2019-08-17 10:00:00 20.9 23 Sudoeste 37 Sudoeste 0 1003.9 0.2 84
2019-08-17 09:00:00 20.5 15 Sur 32 Sudoeste 0 1003.7 -0.2 85
2019-08-17 08:00:00 20.2 12 Sur 32 Sudoeste 0 1003.7 -0.4 85
2019-08-17 07:00:00 20.3 14 Sur 30 Sur 0 1003.7 -0.9 83
2019-08-17 06:00:00 20 16 Sur 28 Sur 0 1003.9 -1.5 84
2019-08-17 05:00:00 20 14 Sur 24 Sur 0 1004.1 -1.7 83
2019-08-17 04:00:00 20 15 Sur 22 Sur 0 1004.6 -1.2 82
2019-08-17 03:00:00 19.8 9 Sur 17 Sudoeste 0 1005.4 -0.7 82
2019-08-17 02:00:00 19.2 7 Oeste 21 Sudoeste 0 1005.8 -0.5 83
2019-08-17 01:00:00 19.3 7 Sur 13 Sudoeste 0 1005.8 -0.1 83
2019-08-17 00:00:00 19.9 12 Sudoeste 22 Sudoeste 0 1006.1 0.8 79
2019-08-16 23:00:00 20.8 15 Sudoeste 22 Sudoeste 0 1006.3 1 76
2019-08-16 22:00:00 21.1 7 Oeste 26 Oeste 0 1005.9 0.5 76
2019-08-16 21:00:00 22.5 15 Oeste 28 Oeste 0 1005.3 -0.3 72
2019-08-16 20:00:00 23.9 10 Noroeste 39 Noroeste 0 1005.3 -0.6 68
2019-08-16 19:00:00 23.7 20 Noroeste 39 Noroeste 0 1005.4 -1 67
2019-08-16 18:00:00 25.2 18 Noroeste 33 Noroeste 0 1005.6 -1 62
2019-08-16 17:00:00 25.3 17 Norte 30 Noroeste 0 1005.9 -1 62
2019-08-16 16:00:00 24.8 16 Noroeste 28 Norte 0 1006.4 -0.8 62
2019-08-16 15:00:00 24.5 14 Norte 24 Nordeste 0 1006.6 -0.8 61
2019-08-16 14:00:00 24.1 6 Nordeste 22 Nordeste 0 1006.9 -0.5 63
2019-08-16 13:00:00 23.3 5 Norte 13 Nordeste 0 1007.2 -0.3 65
2019-08-16 12:00:00 21.3 6 Noroeste 17 Noroeste 0 1007.4 -0.4 69
2019-08-16 11:00:00 19.8 3 Nordeste 13 Sur 0 1007.4 -0.4 77
2019-08-16 10:00:00 16.5 8 Sur 11 Sur 0 1007.5 -0.3 86
2019-08-16 09:00:00 13.3 7 Sur 13 Sur 0 1007.8 0 97
2019-08-16 08:00:00 12.1 11 Sur 24 Sudeste 0 1007.8 -0.2 100
2019-08-16 07:00:00 12 10 Sur 24 Sur 0 1007.8 -0.2 100
2019-08-16 06:00:00 12.3 9 Sur 13 Sur 0 1007.8 -0.8 100
2019-08-16 05:00:00 12.9 6 Sur 11 Sur 0 1008 -0.9 100
2019-08-16 04:00:00 13.2 10 Sur 15 Sur 0 1008 -1.1 100
2019-08-16 03:00:00 14 9 Sur 13 Sur 0 1008.6 -0.6 100
2019-08-16 02:00:00 14.4 8 Sur 9 Sur 0 1008.9 -0.7 100
2019-08-16 01:00:00 15.4 6 Sur 9 Sur 0 1009.1 -0.4 92
2019-08-16 00:00:00 16.1 7 Sur 15 Sur 0 1009.2 -0.4 90
2019-08-15 23:00:00 16.9 4 Oeste 13 Noroeste 0 1009.6 0 81
2019-08-15 22:00:00 18.2 7 Noroeste 18 Norte 0 1009.5 0 77
2019-08-15 21:00:00 19.8 15 Norte 24 Norte 0 1009.6 -0.3 69
2019-08-15 20:00:00 21.3 13 Norte 22 Norte 0 1009.6 -0.5 64
2019-08-15 19:00:00 21.5 14 Norte 26 Norte 0 1009.5 -1.2 62
2019-08-15 18:00:00 21.8 17 Norte 28 Norte 0 1009.9 -1 60
2019-08-15 17:00:00 22.5 12 Norte 28 Norte 0 1010.1 -0.9 60
2019-08-15 16:00:00 21.7 17 Norte 28 Norte 0 1010.7 -0.4 62
2019-08-15 15:00:00 21.7 14 Norte 28 Norte 0 1010.9 -0.4 64
2019-08-15 14:00:00 21.1 16 Norte 26 Norte 0 1011 -0.2 68
2019-08-15 13:00:00 20.6 12 Norte 21 Norte 0 1011.1 -0.2 69
2019-08-15 12:00:00 20.2 10 Norte 21 Norte 0 1011.3 0.3 69
2019-08-15 11:00:00 19.1 9 Norte 17 Norte 0 1011.2 0.5 73
2019-08-15 10:00:00 18.4 3 Este 11 Este 0 1011.3 0.6 81
2019-08-15 09:00:00 15.9 0 Calma 9 Sur 0 1011 0.1 100
2019-08-15 08:00:00 14.7 6 Sur 9 Sur 0 1010.7 -0.2 100
2019-08-15 07:00:00 15.2 2 Sur -- -- 0 1010.7 -0.4 100
2019-08-15 06:00:00 15.8 0 Calma 5 Sur 0 1010.9 -0.4 100
2019-08-15 05:00:00 15.9 0 Calma 8 Sur 0 1010.9 -0.5 99
2019-08-15 04:00:00 16.7 2 Noroeste 5 Noroeste 0 1011.1 -0.2 90
2019-08-15 03:00:00 17 2 Sur 5 Sur 0 1011.3 0.1 92
2019-08-15 02:00:00 17 0 Calma 11 Noroeste 0 1011.4 0.4 91
2019-08-15 01:00:00 17.2 6 Noroeste 9 Oeste 0 1011.3 0.9 91
2019-08-15 00:00:00 17.4 6 Noroeste 15 Norte 0 1011.2 0.9 92
2019-08-14 23:00:00 17.7 6 Noroeste 13 Noroeste 0 1011 1 100
2019-08-14 22:00:00 17.9 8 Norte 21 Norte 0 1010.4 0.6 100
2019-08-14 21:00:00 18.8 13 Norte 21 Noroeste 0.1 1010.3 0.5 100
2019-08-14 20:00:00 19.8 11 Noroeste 26 Noroeste 0 1010 0.2 94
2019-08-14 19:00:00 20.6 15 Noroeste 28 Oeste 0 1009.8 0 88
2019-08-14 18:00:00 21.8 14 Noroeste 26 Noroeste 0 1009.8 -0.1 85
2019-08-14 17:00:00 22.1 14 Noroeste 28 Noroeste 0 1009.8 -0.2 81
2019-08-14 16:00:00 21.9 14 Noroeste 24 Oeste 0 1009.8 0.1 84
2019-08-14 15:00:00 21.8 11 Norte 21 Norte 0 1009.9 0.2 83
2019-08-14 14:00:00 22.2 6 Noroeste 28 Sur 0 1010 0.4 77
2019-08-14 13:00:00 21.3 8 Sur 33 Sudeste 0 1009.7 0.6 76
2019-08-14 12:00:00 18.4 11 Sur 17 Sur 0 1009.7 0.9 87
2019-08-14 11:00:00 18.1 8 Sur 11 Sur 0 1009.6 1.2 89
2019-08-14 10:00:00 18.1 10 Sur 26 Sur 0 1009.1 0.7 78
2019-08-14 09:00:00 16.4 11 Sur 17 Sur 0 1008.8 0.3 80
2019-08-14 08:00:00 15.6 10 Sur 30 Sur 0 1008.4 -0.7 83
2019-08-14 07:00:00 14.4 12 Sur 30 Sudeste 0 1008.4 -1 91
2019-08-14 06:00:00 13.5 6 Sur 18 Sur 0 1008.5 -1.1 97
2019-08-14 05:00:00 13.4 5 Sudeste 17 Sur 0 1009.1 -0.7 100
2019-08-14 04:00:00 13.5 10 Sur 13 Sur 0 1009.4 -0.2 100
2019-08-14 03:00:00 13.7 10 Sur 13 Sur 0 1009.6 -0.4 99
2019-08-14 02:00:00 14.4 3 Sur 17 Sur 0 1009.8 -0.8 95
2019-08-14 01:00:00 14.7 9 Sur 15 Sur 0 1009.6 -0.8 90
2019-08-14 00:00:00 15 7 Sur 13 Sudeste 0 1010 -0.2 89
2019-08-13 23:00:00 15.9 4 Noroeste 5 Noroeste 0 1010.6 0.6 82
2019-08-13 22:00:00 17.1 4 Noroeste 15 Norte 0 1010.4 0.3 77
2019-08-13 21:00:00 18.9 10 Norte 18 Norte 0 1010.2 0.1 70
2019-08-13 20:00:00 19.5 10 Norte 22 Noroeste 0 1010 -0.2 67
2019-08-13 19:00:00 19.2 13 Norte 28 Norte 0 1010.1 -0.4 68
2019-08-13 18:00:00 20.6 15 Norte 28 Norte 0 1010.1 -0.6 64
2019-08-13 17:00:00 20.8 16 Norte 30 Norte 0 1010.2 -0.8 63
2019-08-13 16:00:00 20.7 18 Norte 28 Nordeste 0 1010.5 -0.7 64
2019-08-13 15:00:00 20.5 14 Norte 30 Norte 0 1010.7 -0.8 64
2019-08-13 14:00:00 20.4 15 Norte 26 Nordeste 0 1011 -0.9 66
2019-08-13 13:00:00 19.4 13 Norte 21 Norte 0 1011.2 -0.5 66
2019-08-13 12:00:00 18.9 10 Norte 18 Norte 0 1011.5 -0.2 69
2019-08-13 11:00:00 16.3 4 Norte 9 Sur 0 1011.9 0.4 80
2019-08-13 10:00:00 12.4 7 Sur 17 Sur 0 1011.7 0.4 96
2019-08-13 09:00:00 10 5 Sur 13 Sur 0 1011.7 0.5 100
2019-08-13 08:00:00 9.3 9 Sur 30 Sudeste 0 1011.5 0.3 100
2019-08-13 07:00:00 9.4 9 Sur 13 Sur 0 1011.3 -0.3 100
2019-08-13 06:00:00 9.7 8 Sur 11 Sur 0 1011.2 -1.1 100
2019-08-13 05:00:00 10.3 9 Sur 13 Sur 0 1011.2 -1.4 100
2019-08-13 04:00:00 10.8 8 Sur 11 Sur 0 1011.6 -1.4 100
2019-08-13 03:00:00 12.4 4 Noroeste 8 Noroeste 0 1012.3 -1 95
2019-08-13 02:00:00 12.8 4 Sur 8 Sur 0 1012.6 -0.7 87
2019-08-13 01:00:00 14.2 4 Noroeste 5 Noroeste 0 1013 0 82
2019-08-13 00:00:00 15.3 0 Calma 8 Este 0 1013.3 0.6 76
2019-08-12 23:00:00 16 6 Norte 17 Nordeste 0 1013.3 1.4 73
2019-08-12 22:00:00 16.9 11 Norte 22 Nordeste 0 1013 1.1 70
2019-08-12 21:00:00 17.7 14 Norte 28 Norte 0 1012.7 0.9 65
2019-08-12 20:00:00 18.1 14 Norte 28 Norte 0 1011.9 -0.1 68
2019-08-12 19:00:00 18.6 15 Norte 28 Norte 0 1011.9 -0.7 66
2019-08-12 18:00:00 19.5 14 Norte 30 Norte 0 1011.8 -1.1 63
2019-08-12 17:00:00 19.1 14 Norte 26 Norte 0 1012 -1.1 65
2019-08-12 16:00:00 19.3 12 Norte 22 Norte 0 1012.6 -0.5 61
2019-08-12 15:00:00 19.1 10 Norte 21 Nordeste 0 1012.9 -0.1 63
2019-08-12 14:00:00 19.8 14 Norte 22 Norte 0 1013.1 0.4 56
2019-08-12 13:00:00 19.5 12 Norte 24 Norte 0 1013.1 0.6 58
2019-08-12 12:00:00 19 8 Nordeste 17 Nordeste 0 1013 0.9 67
2019-08-12 11:00:00 17 6 Sudeste 11 Sur 0 1012.7 1.2 87
2019-08-12 10:00:00 13.5 7 Sur 22 Sudeste 0.1 1012.5 1.2 98
2019-08-12 09:00:00 13 9 Sur 13 Sur 0 1012.1 1.2 100
2019-08-12 08:00:00 11.8 11 Sur 13 Sur 0 1011.5 0.7 100
2019-08-12 07:00:00 12.3 5 Sudeste 18 Sur 0.2 1011.3 0.3 100
2019-08-12 06:00:00 12.4 9 Sur 11 Sur 0 1010.9 -0.3 100
2019-08-12 05:00:00 12.8 6 Sur 9 Sur 0 1010.8 -0.3 100
2019-08-12 04:00:00 13.3 9 Sur 13 Sur 0 1011 -0.2 100
2019-08-12 03:00:00 14.1 6 Sudoeste 9 Sudoeste 0 1011.2 -0.1 100
2019-08-12 02:00:00 14.8 6 Sur 13 Sur 0 1011.1 0.2 92
2019-08-12 01:00:00 15.3 3 Oeste 9 Oeste 0 1011.2 0.9 86
2019-08-12 00:00:00 15.5 5 Oeste 13 Oeste 0 1011.3 1.5 83
2019-08-11 23:00:00 16.4 2 Oeste 11 Oeste 0 1010.9 1.6 83
2019-08-11 22:00:00 16.6 5 Oeste 24 Oeste 0.2 1010.3 1.1 85
2019-08-11 21:00:00 18 15 Noroeste 30 Noroeste 0 1009.8 0.7 72
2019-08-11 20:00:00 19.2 18 Noroeste 33 Noroeste 0 1009.3 0.5 62
2019-08-11 19:00:00 19.5 17 Noroeste 32 Norte 0 1009.2 0.5 72
2019-08-11 18:00:00 20.1 21 Noroeste 33 Oeste 0 1009.1 0.1 62
2019-08-11 17:00:00 20.4 22 Noroeste 41 Noroeste 0 1008.8 -0.2 60
2019-08-11 16:00:00 20.1 21 Noroeste 32 Noroeste 0 1008.7 -0.1 62
2019-08-11 15:00:00 19.3 14 Oeste 28 Oeste 0.1 1009 0.7 75
2019-08-11 14:00:00 17.5 20 Oeste 35 Noroeste 0.6 1009 0.9 78
2019-08-11 13:00:00 17.2 13 Oeste 30 Norte 1.5 1008.8 0.9 83
2019-08-11 12:00:00 20.1 13 Oeste 26 Oeste 0 1008.3 0.5 59
2019-08-11 11:00:00 18.1 9 Oeste 24 Oeste 0 1008.1 0.7 78
2019-08-11 10:00:00 16.4 10 Sur 26 Sur 0 1007.9 0.6 91
2019-08-11 09:00:00 13.7 10 Sur 22 Sudeste 0 1007.8 0.5 100
2019-08-11 08:00:00 13.3 7 Sur 24 Sur 0 1007.4 -0.1 100
2019-08-11 07:00:00 13.3 9 Sur 13 Sur 0 1007.3 -0.7 100
2019-08-11 06:00:00 13.8 7 Sur 9 Sur 0 1007.3 -1 100
2019-08-11 05:00:00 14.2 5 Sur 9 Sur 0 1007.5 -1.1 100
2019-08-11 04:00:00 14.4 8 Sur 13 Sur 0 1008 -0.8 100
2019-08-11 03:00:00 14.4 9 Sur 11 Sur 0 1008.3 -0.6 100
2019-08-11 02:00:00 15.3 3 Sudoeste 11 Sur 0 1008.6 -0.6 96
2019-08-11 01:00:00 16.3 5 Sudoeste 11 Sudeste 0 1008.8 -0.4 84
2019-08-11 00:00:00 16.8 0 Calma 13 Oeste 0 1008.9 -0.1 80
2019-08-10 23:00:00 17.6 7 Noroeste 13 Norte 0 1009.2 0.4 79
2019-08-10 22:00:00 18.5 8 Norte 28 Noroeste 0 1009.2 0.5 72
2019-08-10 21:00:00 19.5 7 Noroeste 26 Noroeste 0 1009 0.8 66
2019-08-10 20:00:00 19.4 20 Noroeste 41 Noroeste 0 1008.8 0.4 67
2019-08-10 19:00:00 20.6 22 Noroeste 41 Noroeste 0 1008.7 0.2 63
2019-08-10 18:00:00 21.9 21 Norte 37 Oeste 0 1008.2 -0.5 59
2019-08-10 17:00:00 21.3 23 Noroeste 39 Noroeste 0 1008.4 -0.4 60
2019-08-10 16:00:00 21.2 15 Noroeste 32 Norte 0 1008.5 -0.3 62
2019-08-10 15:00:00 21.5 14 Noroeste 30 Norte 0 1008.7 -0.2 58
2019-08-10 14:00:00 21.7 17 Noroeste 28 Noroeste 0 1008.8 0 60
2019-08-10 13:00:00 21.1 15 Oeste 32 Noroeste 0 1008.8 0.1 57
2019-08-10 12:00:00 20.8 10 Oeste 22 Sudoeste 0 1008.9 0.6 62
2019-08-10 11:00:00 20.5 12 Oeste 26 Oeste 0 1008.8 0.8 64
2019-08-10 10:00:00 19.4 8 Sur 15 Sur 0 1008.7 1.4 73
2019-08-10 09:00:00 16.4 9 Sudoeste 11 Sudoeste 0 1008.3 1.2 93
2019-08-10 08:00:00 15.7 10 Sudoeste 15 Sudoeste 0 1008 1.1 91
2019-08-10 07:00:00 15.8 14 Sudoeste 18 Sur 0 1007.3 0.5 90
2019-08-10 06:00:00 16.4 10 Sur 13 Sur 0 1007.1 0.5 89
2019-08-10 05:00:00 16.3 10 Sudoeste 15 Sudoeste 0 1006.9 0.1 92
2019-08-10 04:00:00 16.5 9 Sur 13 Sur 0 1006.8 0.4 88
2019-08-10 03:00:00 16.6 8 Sur 13 Sudoeste 0 1006.6 0.5 89
2019-08-10 02:00:00 16.9 8 Sudoeste 15 Sur 0 1006.8 1 87
2019-08-10 01:00:00 17 9 Sudoeste 17 Sur 0 1006.4 1.3 85
2019-08-10 00:00:00 17.6 8 Sur 13 Sur 0 1006.1 1.8 79
2019-08-09 23:00:00 17.9 8 Sudoeste 21 Sudoeste 0 1005.8 2.1 75
2019-08-09 22:00:00 19.2 13 Sudoeste 26 Sudoeste 0 1005.1 1.9 70
2019-08-09 21:00:00 20.6 19 Oeste 39 Sudoeste 0 1004.3 1.7 62
2019-08-09 20:00:00 21.6 28 Oeste 42 Sudoeste 0 1003.7 1.6 58
2019-08-09 19:00:00 22.2 22 Sudoeste 48 Sudoeste 0 1003.2 1.4 59
2019-08-09 18:00:00 23.3 28 Oeste 52 Sudoeste 0 1002.6 1.6 55
2019-08-09 17:00:00 23.2 28 Sudoeste 48 Sudoeste 0 1002.1 1.8 57
2019-08-09 16:00:00 22.5 29 Sudoeste 50 Sudoeste 0 1001.8 2.1 64
2019-08-09 15:00:00 22 25 Sudoeste 50 Sudoeste 0.1 1001 1.9 69
2019-08-09 14:00:00 23.9 31 Sudoeste 63 Sudoeste 0 1000.3 2 59
2019-08-09 13:00:00 23.8 42 Sudoeste 63 Sudoeste 0 999.7 1.7 58
2019-08-09 12:00:00 22.6 33 Sudoeste 50 Sudoeste 0 999.1 1.8 65
2019-08-09 11:00:00 21.6 30 Sudoeste 50 Sudoeste 0 998.3 1.4 67
2019-08-09 10:00:00 21.1 22 Sudoeste 35 Sudoeste 0 998 1.4 71
2019-08-09 09:00:00 20 23 Sudoeste 35 Sur 0 997.3 0.9 77
2019-08-09 08:00:00 19.3 17 Sudoeste 35 Sur 0 996.9 0.4 79
2019-08-09 07:00:00 19.3 20 Sudoeste 45 Sur 0 996.6 0.1 78
2019-08-09 06:00:00 19.5 12 Sur 28 Sur 0 996.4 0 76
2019-08-09 05:00:00 19 14 Sudeste 21 Sudeste 0 996.5 0.1 81
2019-08-09 04:00:00 19.1 14 Sur 24 Sur 0 996.5 0.4 80
2019-08-09 03:00:00 19 12 Sur 30 Sur 0 996.4 0.6 81
2019-08-09 02:00:00 19.5 11 Sur 22 Sur 0 996.4 0.9 81
2019-08-09 01:00:00 19.6 11 Sudeste 26 Sudoeste 0 996.1 1.4 83
2019-08-09 00:00:00 19.6 17 Sur 45 Sudoeste 0 995.8 2.1 84
2019-08-08 23:00:00 21.1 21 Sudoeste 35 Oeste 0 995.5 1.7 86
2019-08-08 22:00:00 22.1 21 Sudoeste 37 Sudoeste 0.4 994.7 0.3 99
2019-08-08 21:00:00 22 24 Sur 45 Sur 1.8 993.7 -1.1 100
2019-08-08 20:00:00 22.1 16 Sur 63 Sur 0.3 993.8 -0.8 97
2019-08-08 19:00:00 23.1 26 Sur 59 Sur 0.6 994.4 -0.4 88
2019-08-08 18:00:00 23 24 Sur 54 Sur 0.9 994.8 -0.3 90
2019-08-08 17:00:00 23.8 31 Sur 76 Sur 0 994.6 -1.1 80
2019-08-08 16:00:00 25.6 38 Sudoeste 72 Sudoeste 0 994.8 -1.3 70
2019-08-08 15:00:00 25.5 35 Sudoeste 58 Sudoeste 0 995.1 -1.5 73
2019-08-08 14:00:00 25.5 28 Sur 48 Sur 0 995.7 -0.7 75
2019-08-08 13:00:00 24.1 10 Sur 35 Sur 0 996.1 -0.7 85
2019-08-08 12:00:00 23.6 19 Sur 41 Sur 0 996.6 -0.1 80
2019-08-08 11:00:00 24.2 27 Sur 46 Sudoeste 0 996.4 0.1 74
2019-08-08 10:00:00 23 18 Sur 42 Sur 0 996.8 0.3 78
2019-08-08 09:00:00 22.5 19 Sur 37 Sur 0 996.7 0.6 77
2019-08-08 08:00:00 21.8 19 Sur 32 Sur 0 996.3 -0.5 82
2019-08-08 07:00:00 21.7 15 Sudoeste 41 Sur 0 996.5 -0.7 84
2019-08-08 06:00:00 21 15 Sur 42 Sur 0 996.1 -1.4 88
2019-08-08 05:00:00 20.9 16 Sur 32 Sur 0 996.8 -0.9 87
2019-08-08 04:00:00 20.5 18 Sur 33 Sur 0 997.2 -0.7 90
2019-08-08 03:00:00 20.4 22 Sur 33 Sur 0 997.5 -0.6 88
2019-08-08 02:00:00 20.2 23 Sur 41 Sur 0 997.7 -0.3 87
2019-08-08 01:00:00 20.4 24 Sur 41 Sudeste 0 997.9 0.4 84
2019-08-08 00:00:00 20.7 21 Sudeste 39 Sur 0 998.1 0.3 83
2019-08-07 23:00:00 20.9 26 Sur 45 Sur 0 998 0 82
2019-08-07 22:00:00 21.2 25 Sur 39 Sur 0 997.5 -1.1 84
2019-08-07 21:00:00 21.1 23 Sur 33 Sur 0 997.8 -1.1 89
2019-08-07 20:00:00 21.8 18 Sur 37 Sur 0 998 -1 84
2019-08-07 19:00:00 22.1 18 Sur 30 Sur 0 998.6 -0.6 81
2019-08-07 18:00:00 22 10 Sudeste 30 Sur 0 998.9 -0.2 81
2019-08-07 17:00:00 22.4 14 Sur 37 Sudoeste 0 999 -0.2 81
2019-08-07 16:00:00 23 20 Sur 42 Sudoeste 0 999.2 -0.2 76
2019-08-07 15:00:00 23.6 22 Sur 39 Sur 0 999.1 -0.7 76
2019-08-07 14:00:00 22.6 21 Sur 39 Sur 0 999.2 -0.7 83
2019-08-07 13:00:00 20.5 14 Sudeste 28 Sudeste 3.2 999.4 -0.3 100
2019-08-07 12:00:00 20.5 10 Sudeste 32 Sur 0.6 999.8 0.2 95
2019-08-07 11:00:00 20.9 17 Sur 26 Sur 0 999.9 0.4 84
2019-08-07 10:00:00 20.9 9 Sur 26 Sur 0 999.7 0.1 83
2019-08-07 09:00:00 19.6 11 Sur 22 Sur 0 999.6 -0.2 88
2019-08-07 08:00:00 18.5 7 Sur 32 Sudeste 0 999.5 -0.5 91
2019-08-07 07:00:00 17.8 8 Sur 30 Sudeste 0 999.6 -0.4 93
2019-08-07 06:00:00 17.6 9 Sur 13 Sur 0 999.8 -0.7 95
2019-08-07 05:00:00 17.8 9 Sur 13 Sur 0 1000 -0.8 95
2019-08-07 04:00:00 18.2 8 Sudeste 21 Sur 0 1000 -1.4 95
2019-08-07 03:00:00 18.3 5 Sur 9 Sudoeste 0 1000.5 -1.4 100
2019-08-07 02:00:00 18.7 9 Sur 11 Sur 0 1000.8 -1.3 100
2019-08-07 01:00:00 19.1 5 Sur 8 Sur 0 1001.4 -0.3 100
2019-08-07 00:00:00 19.1 4 Sudeste 8 Sudeste 0 1001.9 0.4 100
2019-08-06 23:00:00 19.1 3 Norte 11 Noroeste 0 1002.1 0.9 100
2019-08-06 22:00:00 19.1 6 Noroeste 11 Noroeste 0 1001.7 0.4 100
2019-08-06 21:00:00 19 4 Nordeste 13 Nordeste 0 1001.5 -0.3 100
2019-08-06 20:00:00 19.1 8 Norte 18 Norte 0 1001.2 -1.1 100
2019-08-06 19:00:00 20 10 Nordeste 15 Nordeste 0 1001.3 -1.4 99
2019-08-06 18:00:00 20.4 9 Norte 26 Sudeste 0 1001.8 -0.9 91
2019-08-06 17:00:00 21.9 12 Este 17 Noroeste 0 1002.3 -0.3 85
2019-08-06 16:00:00 23 10 Nordeste 21 Norte 0 1002.7 -0.1 76
2019-08-06 15:00:00 23.1 11 Nordeste 24 Sur 0 1002.7 0 74
2019-08-06 14:00:00 23.4 15 Sudoeste 24 Sudoeste 0 1002.6 0.1 71
2019-08-06 13:00:00 22.4 18 Sudoeste 30 Sudoeste 0 1002.8 0.3 74
2019-08-06 12:00:00 22.2 14 Sudoeste 26 Sudoeste 0 1002.7 0.5 75
2019-08-06 11:00:00 21.6 13 Sur 18 Sur 0 1002.5 0.3 77
2019-08-06 10:00:00 21.1 12 Sur 22 Sur 0 1002.5 0.6 79
2019-08-06 09:00:00 19.4 7 Sur 18 Sur 0 1002.2 0.2 87
2019-08-06 08:00:00 19.5 6 Sudoeste 21 Sudoeste 0 1002.2 -0.5 83
2019-08-06 07:00:00 18.6 9 Sur 21 Sur 0 1001.9 -1.2 91
2019-08-06 06:00:00 18.7 8 Sudeste 13 Sur 0 1002 -1.4 94
2019-08-06 05:00:00 18.5 6 Sudeste 11 Sur 0 1002.7 -1.1 100
2019-08-06 04:00:00 18.6 6 Sudeste 13 Sudeste 0 1003.1 -1 100
2019-08-06 03:00:00 19.2 6 Sur 9 Sur 0 1003.4 -1 94
2019-08-06 02:00:00 19.2 5 Sudoeste 11 Sudoeste 0 1003.8 -0.7 93
2019-08-06 01:00:00 19.5 5 Sudoeste 9 Sur 0 1004.1 0.1 90
2019-08-06 00:00:00 19.5 2 Oeste 8 Norte 0 1004.4 0.5 90
2019-08-05 23:00:00 19.4 2 Norte 5 Norte 0 1004.5 0.6 93
2019-08-05 22:00:00 19.3 4 Nordeste 15 Nordeste 0 1004 0.2 97
2019-08-05 21:00:00 19.5 8 Nordeste 24 Noroeste 0 1003.9 0.2 95
2019-08-05 20:00:00 20.1 10 Norte 22 Norte 0 1003.9 0.2 91
2019-08-05 19:00:00 21.7 14 Norte 28 Norte 0 1003.8 -0.1 81
2019-08-05 18:00:00 23.1 18 Norte 28 Norte 0 1003.7 -0.4 74
2019-08-05 17:00:00 25.5 14 Norte 30 Noroeste 0 1003.7 -0.6 64
2019-08-05 16:00:00 25.6 12 Noroeste 22 Norte 0 1003.9 -0.8 62
2019-08-05 15:00:00 24.1 12 Norte 18 Norte 0 1004.1 -0.9 63
2019-08-05 14:00:00 24.4 11 Norte 18 Norte 0 1004.3 -0.7 57
2019-08-05 13:00:00 24.6 7 Norte 17 Norte 0 1004.7 -0.4 56
2019-08-05 12:00:00 22.7 9 Sur 15 Sur 0 1005 -0.3 57
2019-08-05 11:00:00 20.9 8 Sur 11 Sur 0 1005 -0.2 66
2019-08-05 10:00:00 17.9 6 Sudeste 11 Sudeste 0 1005.1 -0.1 79
2019-08-05 09:00:00 15.9 6 Sudeste 13 Sudeste 0 1005.3 0 85
2019-08-05 08:00:00 13.4 11 Sur 21 Sur 0 1005.2 -0.3 100
2019-08-05 07:00:00 13 10 Sur 24 Sur 0 1005.2 -0.5 100
2019-08-05 06:00:00 13.3 9 Sur 13 Sur 0 1005.3 -0.6 100
2019-08-05 05:00:00 13.8 9 Sur 11 Sur 0 1005.5 -0.5 100
2019-08-05 04:00:00 14.1 10 Sur 13 Sur 0 1005.7 -0.6 100
2019-08-05 03:00:00 14.4 6 Sur 13 Sur 0 1005.9 -0.6 100
2019-08-05 02:00:00 15 9 Sur 13 Sur 0 1006 -0.5 100
2019-08-05 01:00:00 15.9 6 Sur 9 Sur 0 1006.3 0.2 92
2019-08-05 00:00:00 17 5 Sudoeste 18 Sudeste 0 1006.5 0.7 84
2019-08-04 23:00:00 17.5 0 Calma 4 Noroeste 0 1006.5 0.8 81
2019-08-04 22:00:00 18.9 3 Norte 15 Nordeste 0 1006.1 0.6 78
2019-08-04 21:00:00 20.5 11 Nordeste 21 Norte 0 1005.8 0.3 72
2019-08-04 20:00:00 21.6 10 Norte 28 Norte 0 1005.7 0.3 64
2019-08-04 19:00:00 21.8 16 Norte 28 Norte 0 1005.5 0.3 65
2019-08-04 18:00:00 22.4 13 Norte 28 Oeste 0 1005.5 0.2 64
2019-08-04 17:00:00 22.4 15 Norte 30 Norte 0 1005.4 0.2 66
2019-08-04 16:00:00 22.2 14 Noroeste 32 Noroeste 0 1005.2 -0.3 67
2019-08-04 15:00:00 22.3 15 Norte 28 Norte 0 1005.3 0 68
2019-08-04 14:00:00 21.8 14 Norte 26 Norte 0 1005.2 -0.3 72
2019-08-04 13:00:00 22.4 15 Nordeste 21 Nordeste 0 1005.5 0.1 72
2019-08-04 12:00:00 21.8 11 Nordeste 18 Este 0 1005.3 0.2 75
2019-08-04 11:00:00 19.7 8 Norte 17 Norte 0 1005.5 0.7 83
2019-08-04 10:00:00 19.2 8 Norte 15 Noroeste 0 1005.4 0.8 89
2019-08-04 09:00:00 18.7 8 Norte 15 Norte 0 1005.1 0.5 92
2019-08-04 08:00:00 18.6 7 Norte 17 Norte 0 1004.8 0 100
2019-08-04 07:00:00 18.5 5 Sur 15 Sudeste 0 1004.6 -0.3 98
2019-08-04 06:00:00 18.8 2 Sudoeste 5 Sudoeste 0 1004.6 -0.4 92
2019-08-04 05:00:00 19 0 Calma 5 Sudeste 0 1004.8 -0.3 91
2019-08-04 04:00:00 19 3 Sudeste 8 Sur 0 1004.9 -0.3 90
2019-08-04 03:00:00 19.1 5 Sur 8 Sudeste 0 1005 0 91
2019-08-04 02:00:00 19.2 4 Este 8 Este 0 1005.1 -0.2 97
2019-08-04 01:00:00 19.3 3 Nordeste 9 Nordeste 0 1005.2 0.5 89
2019-08-04 00:00:00 19.6 5 Nordeste 9 Este 0 1005 0.4 89
2019-08-03 23:00:00 19.4 3 Noroeste 11 Norte 0 1005.3 1 85
2019-08-03 22:00:00 19.8 6 Norte 13 Norte 0 1004.7 0.3 80
2019-08-03 21:00:00 21.2 8 Norte 15 Nordeste 0 1004.6 0 73
2019-08-03 20:00:00 22.2 11 Nordeste 21 Norte 0 1004.3 -0.3 71
2019-08-03 19:00:00 22.6 14 Norte 22 Norte 0 1004.4 -0.3 69
2019-08-03 18:00:00 22.7 12 Norte 26 Norte 0 1004.6 0 70
2019-08-03 17:00:00 23.1 15 Norte 28 Norte 0 1004.6 0 71
2019-08-03 16:00:00 22.8 19 Norte 33 Norte 0 1004.7 0 70
2019-08-03 15:00:00 22.8 18 Noroeste 30 Norte 0 1004.6 0.1 70
2019-08-03 14:00:00 22.7 16 Nordeste 24 Nordeste 0 1004.6 0.1 74
2019-08-03 13:00:00 23.3 12 Norte 22 Sur 0 1004.7 0.2 68
2019-08-03 12:00:00 22.1 8 Sudeste 15 Sur 0 1004.5 -0.1 71
2019-08-03 11:00:00 19.6 7 Sur 13 Sudeste 0 1004.5 0.2 83
2019-08-03 10:00:00 18.1 10 Sur 15 Sur 0 1004.5 0.3 91
2019-08-03 09:00:00 17.1 10 Sur 13 Sur 0 1004.6 0.4 95
2019-08-03 08:00:00 16.8 8 Sur 17 Sur 0 1004.3 0.1 100
2019-08-03 07:00:00 16.5 10 Sur 15 Sur 0 1004.2 -0.2 100
2019-08-03 06:00:00 16.4 4 Sur 13 Sur 0 1004.2 -0.4 100
2019-08-03 05:00:00 16.3 10 Sur 13 Sur 0 1004.2 -0.7 100
2019-08-03 04:00:00 16.6 9 Sur 13 Sur 0 1004.4 -1 100
2019-08-03 03:00:00 17.1 7 Sur 8 Sur 0 1004.6 -1 100
2019-08-03 02:00:00 17.6 6 Sudoeste 11 Sur 0 1004.9 -0.7 95
2019-08-03 01:00:00 18.1 7 Sur 9 Sur 0 1005.4 0.4 95
2019-08-03 00:00:00 18.6 2 Sudoeste 11 Oeste 0 1005.6 0.4 96
2019-08-02 23:00:00 18.4 4 Norte 13 Noroeste 0 1005.6 0.6 96
2019-08-02 22:00:00 19.1 6 Noroeste 22 Noroeste 0 1005 0 90
2019-08-02 21:00:00 21.9 11 Noroeste 21 Noroeste 0 1005.2 0.2 71
2019-08-02 20:00:00 23.6 11 Noroeste 21 Noroeste 0 1005 -0.4 64
2019-08-02 19:00:00 23.9 15 Noroeste 24 Noroeste 0 1005 -0.6 61
2019-08-02 18:00:00 23.9 15 Norte 28 Nordeste 0 1005 -0.7 62
2019-08-02 17:00:00 23.6 17 Norte 28 Nordeste 0 1005.4 -0.5 65
2019-08-02 16:00:00 23.9 15 Norte 26 Norte 0 1005.6 -0.5 65
2019-08-02 15:00:00 23.2 16 Norte 24 Norte 0 1005.7 -0.7 66
2019-08-02 14:00:00 23.8 11 Norte 21 Nordeste 0 1005.9 -0.4 64
2019-08-02 13:00:00 23.7 8 Este 18 Sudeste 0 1006.1 -0.2 61
2019-08-02 12:00:00 21.1 4 Nordeste 13 Sur 0 1006.4 0.4 72
2019-08-02 11:00:00 19.7 4 Nordeste 8 Nordeste 0 1006.3 0.7 82
2019-08-02 10:00:00 17.4 0 Calma 5 Sudeste 0 1006.3 1.1 99
2019-08-02 09:00:00 15.6 0 Calma 4 Noroeste 0 1006 0.7 100
2019-08-02 08:00:00 14 5 Sudoeste -- -- 0 1005.6 0.2 100
2019-08-02 07:00:00 14 2 Sur 9 Sur 0 1005.2 -0.3 100
2019-08-02 06:00:00 14.1 7 Sur 9 Sur 0 1005.3 -0.3 100
2019-08-02 05:00:00 14.5 6 Sur 9 Sur 0 1005.4 -0.4 100
2019-08-02 04:00:00 15.8 4 Sur 8 Sur 0 1005.5 -0.7 100
2019-08-02 03:00:00 16.5 0 Calma 8 Noroeste 0 1005.6 -0.7 99
2019-08-02 02:00:00 17.5 4 Norte 13 Norte 0 1005.8 -0.3 93
2019-08-02 01:00:00 18 9 Norte 13 Norte 0 1006.2 0.8 89
2019-08-02 00:00:00 18.3 7 Norte 17 Norte 0 1006.3 1.4 86
2019-08-01 23:00:00 18.7 10 Norte 24 Norte 0 1006.1 1.7 83
2019-08-01 22:00:00 19.6 9 Norte 24 Norte 0 1005.4 1.1 78
2019-08-01 21:00:00 21.5 13 Norte 32 Nordeste 0 1004.9 0.9 69
2019-08-01 20:00:00 22.6 15 Nordeste 28 Nordeste 0 1004.4 0.5 66
2019-08-01 19:00:00 22.6 14 Norte 30 Norte 0 1004.3 0.2 65
2019-08-01 18:00:00 23.5 18 Norte 30 Nordeste 0 1004 0 61
2019-08-01 17:00:00 23.4 20 Norte 37 Norte 0 1003.9 0 64
2019-08-01 16:00:00 22.6 21 Norte 39 Norte 0 1004.1 0 66
2019-08-01 15:00:00 22.3 21 Norte 39 Norte 0 1004 -0.3 68
2019-08-01 14:00:00 24.2 13 Nordeste 30 Norte 0 1003.9 -0.2 60
2019-08-01 13:00:00 21.8 17 Norte 30 Noroeste 0 1004.1 0.1 68
2019-08-01 12:00:00 21 14 Norte 24 Nordeste 0 1004.3 0.6 71
2019-08-01 11:00:00 19.6 13 Norte 21 Norte 0 1004.1 0.5 76
2019-08-01 10:00:00 18.5 9 Norte 17 Noroeste 0 1004 0.5 81
2019-08-01 09:00:00 17.3 7 Norte 15 Norte 0 1003.7 0.2 87
2019-08-01 08:00:00 16.4 8 Norte 15 Norte 0 1003.6 -0.3 88
2019-08-01 07:00:00 16.1 5 Norte 9 Norte 0 1003.5 -0.9 88
2019-08-01 06:00:00 16.6 4 Norte 9 Norte 0 1003.5 -1 86
2019-08-01 05:00:00 16.9 5 Norte 15 Nordeste 0 1003.9 -1.1 84
2019-08-01 04:00:00 16.3 5 Noroeste 13 Norte 0 1004.4 -0.7 86
2019-08-01 03:00:00 16.4 6 Norte 17 Norte 0 1004.5 -0.8 84
2019-08-01 02:00:00 16.7 8 Norte 17 Norte 0 1005 -0.3 82
2019-08-01 01:00:00 17 9 Norte 15 Norte 0 1005.1 0.2 81
2019-08-01 00:00:00 17.3 9 Norte 15 Norte 0 1005.3 0.6 79
2019-07-31 23:00:00 18.1 8 Norte 17 Norte 0 1005.3 0.6 74
2019-07-31 22:00:00 18.9 10 Norte 26 Norte 0 1004.9 0.1 70
2019-07-31 21:00:00 19.6 11 Norte 28 Norte 0 1004.7 -0.2 69
2019-07-31 20:00:00 20.3 19 Norte 33 Norte 0 1004.7 -1.1 67
2019-07-31 19:00:00 20.6 21 Norte 33 Norte 0 1004.8 -1.3 68
2019-07-31 18:00:00 20.7 19 Norte 35 Norte 0 1004.9 -1.4 68
2019-07-31 17:00:00 21 22 Norte 37 Norte 0 1005.8 -0.8 62
2019-07-31 16:00:00 20.2 20 Norte 35 Norte 0 1006.1 -1.3 60
2019-07-31 15:00:00 21.4 15 Norte 30 Norte 0 1006.3 -1.4 54
2019-07-31 14:00:00 21.2 15 Norte 30 Norte 0 1006.6 -1.4 59
2019-07-31 13:00:00 20 14 Norte 24 Norte 0 1007.4 -0.5 62
2019-07-31 12:00:00 19.2 12 Norte 22 Norte 0 1007.7 -0.3 60
2019-07-31 11:00:00 18 6 Norte 11 Norte 0 1008 -0.3 64
2019-07-31 10:00:00 13.8 8 Sur 13 Sur 0 1007.9 -0.1 87
2019-07-31 09:00:00 11.8 7 Sur 13 Sudeste 0 1008 -0.2 98
2019-07-31 08:00:00 10.5 6 Sur 21 Sur 0 1008.3 -0.1 100
2019-07-31 07:00:00 10.1 8 Sur 15 Sur 0 1008 -0.7 100
2019-07-31 06:00:00 10.3 7 Sur 13 Sur 0 1008.2 -1 100
2019-07-31 05:00:00 11 9 Sur 13 Sur 0 1008.4 -1.1 100
2019-07-31 04:00:00 11.3 10 Sur 13 Sur 0 1008.7 -1.1 100
2019-07-31 03:00:00 11.8 9 Sur 13 Sur 0 1009.2 -0.8 100
2019-07-31 02:00:00 12.4 9 Sur 11 Sur 0 1009.5 -0.5 92
2019-07-31 01:00:00 13.3 5 Sur -- -- 0 1009.8 -0.1 85
2019-07-31 00:00:00 15 4 Sur 11 Sudeste 0 1010 0.4 75
2019-07-30 23:00:00 15.5 0 Calma 11 Norte 0 1010 0.5 73
2019-07-30 22:00:00 17.1 6 Norte 18 Norte 0 1009.9 0.4 66
2019-07-30 21:00:00 18.9 8 Norte 22 Norte 0 1009.6 -0.2 60
2019-07-30 20:00:00 19.3 12 Norte 24 Norte 0 1009.5 -0.6 56
2019-07-30 19:00:00 20 14 Norte 28 Norte 0 1009.5 -0.8 53
2019-07-30 18:00:00 20.2 18 Norte 30 Norte 0 1009.8 -0.5 51
2019-07-30 17:00:00 20.8 14 Norte 30 Norte 0 1010.1 -0.3 52
2019-07-30 16:00:00 20.4 14 Norte 32 Norte 0 1010.3 -0.1 53
2019-07-30 15:00:00 19.9 18 Noroeste 33 Norte 0 1010.3 -0.1 56
2019-07-30 14:00:00 20.3 18 Noroeste 32 Norte 0 1010.4 0.3 55
2019-07-30 13:00:00 19.4 13 Noroeste 28 Noroeste 0 1010.4 0.4 60
2019-07-30 12:00:00 18.9 15 Norte 26 Noroeste 0 1010.4 1 59
2019-07-30 11:00:00 18.4 14 Noroeste 26 Noroeste 0 1010.1 0.9 63
2019-07-30 10:00:00 16.8 12 Noroeste 22 Noroeste 0 1010 1.2 73
2019-07-30 09:00:00 16 9 Oeste 21 Oeste 0 1009.4 0.7 80
2019-07-30 08:00:00 15.3 10 Oeste 17 Oeste 0 1009.2 0.7 84
2019-07-30 07:00:00 14.8 8 Oeste 9 Oeste 0 1008.8 0.3 86
2019-07-30 06:00:00 15.8 11 Noroeste 21 Norte 0 1008.7 0.2 81
2019-07-30 05:00:00 15.4 8 Noroeste 26 Oeste 0 1008.5 0.2 81
2019-07-30 04:00:00 15.5 12 Oeste 21 Oeste 0 1008.5 0.3 79
2019-07-30 03:00:00 15.5 12 Oeste 21 Oeste 0 1008.5 0.7 81
2019-07-30 02:00:00 15.1 12 Oeste 24 Oeste 0.1 1008.3 1.1 84
2019-07-30 01:00:00 15.7 14 Oeste 22 Oeste 0 1008.2 1.5 80
2019-07-30 00:00:00 15.7 15 Oeste 22 Oeste 0 1007.8 1.9 80
2019-07-29 23:00:00 16.1 10 Oeste 28 Noroeste 0 1007.2 1.7 77
2019-07-29 22:00:00 16.5 14 Oeste 26 Oeste 0 1006.7 1.5 79
2019-07-29 21:00:00 17.8 16 Oeste 39 Oeste 0 1005.9 0.8 66
2019-07-29 20:00:00 18.7 26 Noroeste 48 Oeste 0 1005.5 1.1 65
2019-07-29 19:00:00 19.3 31 Noroeste 48 Oeste 0 1005.2 1.1 64
2019-07-29 18:00:00 17.4 18 Oeste 52 Oeste 0 1005.1 1.6 73
2019-07-29 17:00:00 20.1 28 Noroeste 55 Noroeste 0 1004.4 1 55
2019-07-29 16:00:00 20.1 26 Noroeste 55 Noroeste 0 1004.1 1.5 58
2019-07-29 15:00:00 20.3 21 Oeste 46 Oeste 0 1003.5 1.6 60
2019-07-29 14:00:00 18.8 27 Noroeste 50 Oeste 0.1 1003.4 2 69
2019-07-29 13:00:00 19.8 21 Noroeste 45 Oeste 0.4 1002.6 1.6 68
2019-07-29 12:00:00 20 25 Noroeste 42 Noroeste 0 1001.9 1.3 62
2019-07-29 11:00:00 19.3 26 Oeste 48 Oeste 0 1001.4 1.2 66
2019-07-29 10:00:00 18.3 22 Oeste 39 Oeste 0 1001 1.6 72
2019-07-29 09:00:00 17.2 15 Sudoeste 28 Oeste 0 1000.6 1.4 77
2019-07-29 08:00:00 16.5 17 Oeste 33 Sudoeste 0 1000.2 1.1 80
2019-07-29 07:00:00 16.7 20 Oeste 39 Oeste 0 999.4 0.6 80
2019-07-29 06:00:00 16.7 12 Oeste 35 Oeste 0 999.2 0.5 81
2019-07-29 05:00:00 17.7 15 Oeste 33 Oeste 0 999.1 0.4 79
2019-07-29 04:00:00 17.6 19 Oeste 32 Oeste 0.2 998.8 0.3 84
2019-07-29 03:00:00 16.4 12 Sur 22 Sur 0 998.7 0 96
2019-07-29 02:00:00 17.7 15 Sur 26 Sur 0 998.7 0.4 83
2019-07-29 01:00:00 18 16 Sur 45 Sur 0 998.5 0.2 76
2019-07-29 00:00:00 18.6 21 Sur 32 Sur 0 998.7 0.4 67
2019-07-28 23:00:00 19.6 22 Sur 41 Sudoeste 0 998.3 0.4 58
2019-07-28 22:00:00 19.4 9 Sudoeste 24 Sudoeste 0 998.3 0.3 68
2019-07-28 21:00:00 20.4 8 Nordeste 17 Nordeste 0 998.3 -0.1 68
2019-07-28 20:00:00 22.5 8 Norte 21 Noroeste 0 997.9 -0.8 57
2019-07-28 19:00:00 23.3 9 Norte 24 Norte 0 998 -1.3 55
2019-07-28 18:00:00 23.1 18 Norte 28 Norte 0 998.4 -1.4 54
2019-07-28 17:00:00 23.5 14 Norte 24 Norte 0 998.7 -1.7 56
2019-07-28 16:00:00 22.3 13 Norte 24 Nordeste 0 999.3 -1.7 61
2019-07-28 15:00:00 21.8 14 Norte 26 Norte 0 999.8 -1.6 64
2019-07-28 14:00:00 21.8 12 Norte 21 Norte 0 1000.4 -1.4 61
2019-07-28 13:00:00 21.5 9 Nordeste 17 Nordeste 0 1001 -1.2 60
2019-07-28 12:00:00 21.4 8 Sudeste 18 Este 0 1001.4 -0.8 59
2019-07-28 11:00:00 18.8 5 Sur 13 Sur 0 1001.8 -0.7 69
2019-07-28 10:00:00 14.6 5 Sur 11 Sur 0 1002.2 -0.3 100
2019-07-28 09:00:00 12.3 7 Sur 11 Sur 0 1002.2 -0.1 100
2019-07-28 08:00:00 11.2 9 Sur 13 Sur 0 1002.5 -0.3 100
2019-07-28 07:00:00 11.6 5 Sur 9 Sur 0 1002.5 -0.9 100
2019-07-28 06:00:00 11.8 6 Sur 13 Sur 0 1002.3 -1.2 100
2019-07-28 05:00:00 12.5 9 Sur 15 Sur 0 1002.8 -1.3 100
2019-07-28 04:00:00 13.1 7 Sur 11 Sur 0 1003.4 -0.7 100
2019-07-28 03:00:00 13.8 6 Sur 9 Sudoeste 0 1003.5 -0.5 100
2019-07-28 02:00:00 15.1 0 Calma 4 Sudoeste 0 1004.1 0.4 97
2019-07-28 01:00:00 15.4 4 Noroeste 5 Noroeste 0 1004.1 0.9 92
2019-07-28 00:00:00 16.3 0 Calma 13 Norte 0 1004 1.2 87
2019-07-27 23:00:00 17.1 6 Norte 18 Norte 0 1003.7 1.1 84
2019-07-26 12:00:00 20.8 13 Noroeste 24 Norte 0 1005.2 0.2 59
2019-07-26 11:00:00 19.3 10 Noroeste 22 Noroeste 0 1005.2 0.3 70
2019-07-26 10:00:00 19 8 Noroeste 18 Noroeste 0 1005.2 0.5 79
2019-07-26 09:00:00 17.9 5 Oeste 15 Noroeste 0 1005 0.6 87
2019-07-26 08:00:00 16.9 8 Sudoeste 13 Sudoeste 0 1004.9 0.5 93
2019-07-26 07:00:00 17 7 Oeste 13 Oeste 0 1004.7 0.2 92
2019-07-26 06:00:00 17 5 Sudoeste 9 Sur 0 1004.4 -0.4 93
2019-07-26 05:00:00 17.1 6 Sudoeste 15 Oeste 0 1004.4 -0.6 94
2019-07-26 04:00:00 16.9 9 Oeste 18 Oeste 0 1004.5 -0.6 98
2019-07-26 03:00:00 17 7 Oeste 13 Oeste 0 1004.8 -0.1 97
2019-07-26 02:00:00 17.2 7 Sudoeste 17 Oeste 0.1 1005 0.7 99
2019-07-26 01:00:00 17.7 9 Oeste 17 Oeste 0.1 1005.1 1.4 88
2019-07-26 00:00:00 18.4 8 Sudoeste 13 Sudoeste 0 1004.9 1.8 78
2019-07-25 23:00:00 18.6 7 Oeste 15 Oeste 0 1004.3 2 76
2019-07-25 22:00:00 19.7 8 Noroeste 22 Noroeste 0 1003.7 1.8 74
2019-07-25 21:00:00 21.2 13 Noroeste 28 Oeste 0 1003.1 1 67
2019-07-25 20:00:00 23.8 20 Oeste 37 Oeste 0 1002.3 0.4 49
2019-07-25 19:00:00 25.2 18 Oeste 32 Oeste 0 1001.9 0.2 48
2019-07-25 18:00:00 25.1 15 Oeste 35 Sudoeste 0 1002.1 0.2 52
2019-07-25 17:00:00 24.4 15 Oeste 30 Oeste 0 1001.9 0.3 53
2019-07-25 16:00:00 24 18 Oeste 32 Oeste 0 1001.7 0.7 56
2019-07-25 15:00:00 22.3 14 Oeste 33 Oeste 0 1001.9 1.3 67
2019-07-25 14:00:00 21.6 12 Oeste 24 Oeste 0 1001.6 1.8 76
2019-07-25 13:00:00 20.3 12 Oeste 28 Oeste 0.2 1001 1.2 89
2019-07-25 12:00:00 20.4 12 Oeste 30 Sudoeste 0.2 1000.6 1.2 98
2019-07-25 11:00:00 21.9 22 Sudoeste 35 Sur 0 999.8 1.1 79
2019-07-25 10:00:00 21.9 15 Sur 33 Sur 0 999.8 1 78
2019-07-25 09:00:00 21.7 13 Sur 33 Sur 0 999.4 0.5 78
2019-07-25 08:00:00 20.8 20 Sur 45 Sur 0 998.7 -0.2 81
2019-07-25 07:00:00 20.3 23 Sur 35 Sur 0 998.8 -0.1 86
2019-07-25 06:00:00 20.3 14 Sur 37 Sur 0 998.9 -0.2 86
2019-07-25 05:00:00 20.6 13 Sur 26 Sur 0 998.9 -0.4 81
2019-07-25 04:00:00 20.3 17 Sur 39 Sudoeste 0 998.9 -1 81
2019-07-25 03:00:00 20 22 Sudoeste 46 Sur 0 999.1 -1.1 79
2019-07-25 02:00:00 20.3 30 Sur 42 Sur 0 999.3 -0.9 78
2019-07-25 01:00:00 20.2 26 Sudoeste 41 Sudoeste 0 999.9 0 81
2019-07-25 00:00:00 20.4 13 Sur 32 Sudoeste 0 1000.2 0.4 80
2019-07-24 23:00:00 21.4 22 Sur 33 Sur 0 1000.2 0.2 74
2019-07-24 22:00:00 23.9 21 Sur 35 Sudoeste 0 999.9 -0.1 62
2019-07-24 21:00:00 25.6 20 Sudoeste 32 Sudoeste 0 999.8 -0.2 55
2019-07-24 20:00:00 25.3 10 Nordeste 24 Sur 0 1000 0 60
2019-07-24 19:00:00 24.4 13 Nordeste 22 Norte 0 1000 -0.7 67
2019-07-24 18:00:00 24.4 14 Norte 24 Nordeste 0 1000 -1.1 66
2019-07-24 17:00:00 25.8 9 Norte 21 Norte 0 1000 -1.5 62
2019-07-24 16:00:00 24.8 13 Nordeste 24 Nordeste 0 1000.7 -1 65
2019-07-24 15:00:00 24.3 16 Nordeste 26 Nordeste 0 1001.1 -0.9 66
2019-07-24 14:00:00 24 16 Nordeste 26 Nordeste 0 1001.5 -0.8 68
2019-07-24 13:00:00 23.8 13 Nordeste 22 Nordeste 0 1001.7 -0.7 66
2019-07-24 12:00:00 24.3 10 Nordeste 15 Nordeste 0 1002 -0.6 63
2019-07-24 11:00:00 23.3 6 Sudeste 13 Sudeste 0 1002.3 -0.5 66
2019-07-24 10:00:00 19.8 8 Sudeste 28 Sudeste 0 1002.4 -0.3 83
2019-07-24 09:00:00 16.8 10 Sur 17 Sur 0 1002.6 -0.3 92
2019-07-24 08:00:00 14.5 9 Sur 13 Sur 0 1002.8 -0.5 100
2019-07-24 07:00:00 14.3 10 Sur 21 Sur 0 1002.7 -1 100
2019-07-24 06:00:00 14.7 10 Sur 15 Sur 0 1002.9 -1.2 100
2019-07-24 05:00:00 14.8 6 Sur 13 Sur 0 1003.3 -1.7 100
2019-07-24 04:00:00 15.3 8 Sur 13 Sur 0 1003.7 -1.2 100
2019-07-24 03:00:00 16.3 5 Sudoeste 11 Sudoeste 0 1004.1 -1.1 97
2019-07-24 02:00:00 16.6 6 Sur 9 Sur 0 1005 -0.1 98
2019-07-24 01:00:00 17.2 5 Sur 13 Sudeste 0 1004.9 0.4 97
2019-07-24 00:00:00 17.6 7 Sur 13 Sudeste 0 1005.2 1.4 94
2019-07-23 23:00:00 18 4 Norte 15 Norte 0 1005.1 1.3 94
2019-07-23 22:00:00 19 12 Norte 21 Norte 0 1004.5 0.1 86
2019-07-23 21:00:00 21.8 8 Nordeste 15 Norte 0 1003.8 -0.7 75
2019-07-23 20:00:00 22 12 Norte 18 Norte 0 1003.8 -1 75
2019-07-23 19:00:00 23.1 9 Norte 21 Norte 0 1004.4 -0.4 71
2019-07-23 18:00:00 23.3 10 Nordeste 22 Norte 0 1004.5 0.6 71
2019-07-23 17:00:00 22.9 14 Norte 39 Noroeste 0 1004.8 1.1 71
2019-07-23 16:00:00 23.4 18 Noroeste 37 Oeste 0 1004.8 1.4 71
2019-07-23 15:00:00 24.6 11 Norte 30 Norte 0 1003.9 0.5 69
2019-07-23 14:00:00 23.6 12 Norte 24 Norte 0 1003.7 0.4 77
2019-07-23 13:00:00 22.6 10 Norte 17 Norte 0 1003.4 0.1 81
2019-07-23 12:00:00 21.7 9 Noroeste 15 Noroeste 0 1003.4 0.6 86
2019-07-23 11:00:00 20.8 4 Noroeste 11 Noroeste 0 1003.3 -0.2 90
2019-07-23 10:00:00 19.4 6 Oeste 17 Oeste 0 1003.3 0.5 97
2019-07-23 09:00:00 18.2 4 Norte 11 Sur 0 1002.8 0.2 100
2019-07-23 08:00:00 17.3 10 Sur 15 Sur 0 1003.5 0.9 100
2019-07-23 07:00:00 17.3 4 Sudoeste 13 Sudeste 0 1002.8 -0.2 100
2019-07-23 06:00:00 17.5 3 Nordeste 9 Noroeste 0 1002.6 -0.5 100
2019-07-23 05:00:00 17.8 4 Sudoeste 8 Sudoeste 0 1002.6 -1.2 100
2019-07-23 04:00:00 18.2 4 Noroeste 8 Noroeste 0 1003 -1.5 100
2019-07-23 03:00:00 18.6 0 Calma 8 Oeste 0 1003.1 -1.4 98
2019-07-23 02:00:00 18.9 3 Sudoeste 9 Sur 0 1003.8 -0.7 95
2019-07-23 01:00:00 19.6 5 Este 8 Este 0 1004.5 0 92
2019-07-23 00:00:00 20.1 4 Sur 8 Sudeste 0 1004.5 0.3 88
2019-07-22 23:00:00 21.6 4 Norte 9 Noroeste 0 1004.5 0.5 82
2019-07-22 22:00:00 24 6 Norte 11 Norte 0 1004.5 0.2 73
2019-07-22 21:00:00 25.6 10 Noroeste 22 Noroeste 0 1004.2 -0.4 67
2019-07-22 20:00:00 27 14 Norte 26 Norte 0 1004 -0.9 63
2019-07-22 19:00:00 27.6 18 Noroeste 28 Norte 0 1004.3 -1 61
2019-07-22 18:00:00 28.1 13 Noroeste 24 Norte 0 1004.6 -1 59
2019-07-22 17:00:00 27.9 13 Norte 22 Norte 0 1004.9 -1.3 59
2019-07-22 16:00:00 27.3 12 Norte 24 Norte 0 1005.3 -1.4 61
2019-07-22 15:00:00 27.5 11 Norte 21 Norte 0 1005.6 -1.7 61
2019-07-22 14:00:00 26.2 12 Norte 18 Norte 0 1006.2 -1.4 64
2019-07-22 13:00:00 25.2 9 Norte 17 Norte 0 1006.7 -1.3 68
2019-07-22 12:00:00 23.5 5 Norte 13 Norte 0 1007.3 -0.8 72
2019-07-22 11:00:00 21.3 5 Norte 9 Norte 0 1007.6 -0.7 82
2019-07-22 10:00:00 18.9 3 Noroeste 5 Noroeste 0 1008 -0.1 96
2019-07-22 09:00:00 16.5 2 Sur 9 Sur 0 1008.1 -0.2 100
2019-07-22 08:00:00 15 7 Sur 11 Sur 0 1008.3 -0.1 100
2019-07-22 07:00:00 14.7 9 Sur 13 Sur 0 1008.1 -1 100
2019-07-22 06:00:00 15.4 5 Sur 9 Sur 0 1008.3 -1.5 100
2019-07-22 05:00:00 16 8 Sur 9 Sur 0 1008.4 -1.7 97
2019-07-22 04:00:00 17.6 5 Norte 9 Noroeste 0 1009.1 -1.3 94
2019-07-22 03:00:00 17.9 5 Norte 11 Noroeste 0 1009.8 -0.6 92
2019-07-22 02:00:00 18.4 8 Norte 15 Norte 0 1010.1 -0.4 91
2019-07-22 01:00:00 18.8 8 Norte 15 Norte 0 1010.4 0.4 90
2019-07-22 00:00:00 19.1 6 Norte 13 Norte 0 1010.4 0.7 88
2019-07-21 23:00:00 19.5 9 Norte 22 Norte 0 1010.5 0.9 86
2019-07-21 22:00:00 20.1 12 Norte 28 Norte 0 1010 0.4 83
2019-07-21 21:00:00 20.9 17 Norte 33 Norte 0 1009.7 0.1 80
2019-07-21 20:00:00 21.3 18 Norte 41 Norte 0 1009.6 0 79
2019-07-21 19:00:00 21.9 23 Norte 39 Norte 0 1009.6 -0.3 74
2019-07-21 18:00:00 22.4 25 Norte 39 Norte 0 1009.6 -0.6 72
2019-07-21 17:00:00 22.7 24 Norte 41 Norte 0 1009.6 -0.6 70
2019-07-21 16:00:00 22.6 22 Norte 37 Norte 0 1009.9 -0.1 71
2019-07-21 15:00:00 21.6 25 Norte 45 Norte 0 1010.2 0.2 73
2019-07-21 14:00:00 21.5 21 Norte 39 Norte 0 1010.2 0.1 76
2019-07-21 13:00:00 21.5 15 Norte 28 Norte 0 1010 -0.5 74
2019-07-21 12:00:00 21.5 12 Norte 18 Norte 0 1010 -0.3 73
2019-07-21 11:00:00 20.1 7 Norte 13 Norte 0 1010.1 0.2 77
2019-07-21 10:00:00 17.9 6 Nordeste 9 Nordeste 0 1010.5 1 91
2019-07-21 09:00:00 16.3 0 Calma 5 Este 0 1010.3 1 100
2019-07-21 08:00:00 16.1 4 Norte 8 Norte 0 1009.9 0.6 100
2019-07-21 07:00:00 16 3 Nordeste 5 Nordeste 0 1009.5 0.3 100
2019-07-21 06:00:00 16 3 Sudeste 5 Sudeste 0 1009.3 -0.1 98
2019-07-21 05:00:00 16.5 3 Norte 5 Norte 0 1009.3 -0.2 97
2019-07-21 04:00:00 16.8 4 Norte 9 Norte 0 1009.2 -0.3 96
2019-07-21 03:00:00 17.1 4 Este 9 Este 0 1009.4 -0.1 95
2019-07-21 02:00:00 16.8 3 Norte 8 Norte 0 1009.5 0 95
2019-07-21 01:00:00 17 4 Noroeste 8 Norte 0 1009.5 0.6 93
2019-07-21 00:00:00 17.6 4 Norte 9 Norte 0 1009.5 0.9 91
2019-07-20 23:00:00 17.9 5 Norte 13 Norte 0 1009.5 1.3 88
2019-07-20 22:00:00 18.4 8 Norte 15 Norte 0 1008.9 1.1 86
2019-07-20 21:00:00 19.7 10 Norte 22 Norte 0 1008.6 1.2 79
2019-07-20 20:00:00 20.4 14 Norte 28 Norte 0 1008.2 1.1 72
2019-07-20 19:00:00 21.6 15 Norte 28 Norte 0 1007.8 0.7 69
2019-07-20 18:00:00 22.7 14 Noroeste 26 Norte 0 1007.4 0.5 61
2019-07-20 17:00:00 22.8 14 Norte 26 Nordeste 0 1007.1 0.7 63
2019-07-20 16:00:00 22 13 Norte 26 Norte 0 1007.1 1 69
2019-07-20 15:00:00 21.4 17 Norte 28 Norte 0 1006.9 1.2 72
2019-07-20 14:00:00 21.8 14 Norte 28 Norte 0 1006.4 1 69
2019-07-20 13:00:00 20.9 13 Norte 22 Nordeste 0 1006.1 0.8 76
2019-07-20 12:00:00 21 10 Nordeste 21 Norte 0 1005.7 1.1 78
2019-07-20 11:00:00 20.3 9 Norte 21 Norte 0 1005.4 1.3 82
2019-07-20 10:00:00 18.8 10 Noroeste 21 Norte 0.1 1005.3 1.7 91
2019-07-20 09:00:00 19.5 0 Calma 9 Sudoeste 0 1004.6 1.1 85
2019-07-20 08:00:00 18.6 6 Sur 24 Sudeste 0 1004.1 0.5 87
2019-07-20 07:00:00 18.6 8 Sur 24 Sudeste 0 1003.6 -0.2 87
2019-07-20 06:00:00 18.1 11 Sur 15 Sur 0 1003.5 -0.3 89
2019-07-20 05:00:00 17.8 9 Sur 13 Sur 0 1003.6 -0.2 90
2019-07-20 04:00:00 17.8 9 Sur 15 Sur 0 1003.8 -0.3 90
2019-07-20 03:00:00 17.6 7 Sur 11 Sudeste 0 1003.8 -0.4 91
2019-07-20 02:00:00 17.3 10 Sudeste 17 Sudeste 0 1003.8 0.1 93
2019-07-20 01:00:00 17.2 11 Sur 17 Sur 0 1004.1 0.9 93
2019-07-20 00:00:00 17 5 Norte 13 Norte 0 1004.2 1.1 94
2019-07-19 23:00:00 17.9 4 Nordeste 17 Norte 0 1003.7 0.5 87
2019-07-19 22:00:00 19.2 11 Nordeste 17 Nordeste 0 1003.2 -0.1 79
2019-07-19 21:00:00 22.9 7 Nordeste 13 Norte 0 1003.1 -0.3 64
2019-07-19 20:00:00 23.2 6 Nordeste 22 Norte 0 1003.2 -0.3 63
2019-07-19 19:00:00 21.9 12 Norte 24 Nordeste 0 1003.3 -0.2 69
2019-07-19 18:00:00 22.2 14 Norte 32 Norte 0 1003.4 -0.5 68
2019-07-19 17:00:00 22.5 13 Norte 28 Norte 0 1003.5 -0.6 65
2019-07-19 16:00:00 22.4 17 Norte 26 Nordeste 0 1003.5 -0.6 66
2019-07-19 15:00:00 22.1 16 Norte 26 Norte 0 1003.9 -0.3 67
2019-07-19 14:00:00 21.7 17 Nordeste 26 Nordeste 0 1004.1 -0.4 68
2019-07-19 13:00:00 21.1 12 Norte 21 Nordeste 0 1004.1 -0.5 70
2019-07-19 12:00:00 20.4 12 Norte 21 Norte 0 1004.2 -0.2 72
2019-07-19 11:00:00 19.9 5 Nordeste 15 Norte 0 1004.5 0.1 74
2019-07-19 10:00:00 18.8 6 Nordeste 13 Norte 0 1004.6 0 79
2019-07-19 09:00:00 18.3 5 Nordeste 13 Nordeste 0 1004.4 -0.3 83
2019-07-19 08:00:00 17.9 6 Este 11 Este 0 1004.4 -0.6 88
2019-07-19 07:00:00 17.7 5 Norte 8 Norte 0 1004.6 -1 89
2019-07-19 06:00:00 17.7 5 Norte 9 Norte 0 1004.7 -1.5 91
2019-07-19 05:00:00 17.7 5 Norte 9 Norte 0 1005 -1.6 93
2019-07-19 04:00:00 17.6 4 Norte 9 Norte 0 1005.6 -1.3 94
2019-07-19 03:00:00 17.6 5 Norte 11 Norte 0 1006.2 -0.8 95
2019-07-19 02:00:00 17.7 6 Norte 13 Norte 0 1006.6 -0.3 94
2019-07-19 01:00:00 17.8 5 Norte 13 Norte 0 1006.9 0.2 94
2019-07-19 00:00:00 17.8 7 Norte 13 Norte 0 1007 0.4 94